createdAt,value
2022-12-12T00:02:21.420Z,101088.81
2022-12-12T00:04:48.586Z,101087.31
2022-12-12T00:07:15.510Z,101089.28
2022-12-12T00:09:42.430Z,101100.25
2022-12-12T00:12:09.474Z,101095.44
2022-12-12T00:14:36.403Z,101098.47
2022-12-12T00:17:05.003Z,101107.25
2022-12-12T00:19:31.958Z,101107.94
2022-12-12T00:21:59.266Z,101104.00
2022-12-12T00:24:26.273Z,101103.16
2022-12-12T00:26:53.252Z,101090.22
2022-12-12T00:29:20.231Z,101102.72
2022-12-12T00:31:47.207Z,101106.00
2022-12-12T00:34:15.461Z,101107.75
2022-12-12T00:36:42.646Z,101110.47
2022-12-12T00:39:15.185Z,101105.34
2022-12-12T00:41:45.107Z,101109.50
2022-12-12T00:44:12.717Z,101106.28
2022-12-12T00:46:40.088Z,101104.31
2022-12-12T00:49:07.095Z,101116.66
2022-12-12T00:51:35.630Z,101115.81
2022-12-12T00:54:02.559Z,101116.06
2022-12-12T00:56:30.799Z,101119.91
2022-12-12T00:58:58.032Z,101123.72
2022-12-12T01:01:29.487Z,101121.22
2022-12-12T01:03:57.266Z,101122.91
2022-12-12T01:06:24.631Z,101125.38
2022-12-12T01:08:56.341Z,101122.91
2022-12-12T01:11:23.690Z,101124.13
2022-12-12T01:13:54.302Z,101121.75
2022-12-12T01:16:22.491Z,101122.69
2022-12-12T01:18:50.186Z,101126.13
2022-12-12T01:21:19.709Z,101133.25
2022-12-12T01:23:48.070Z,101135.41
2022-12-12T01:26:20.209Z,101134.41
2022-12-12T01:28:47.851Z,101132.28
2022-12-12T01:31:15.722Z,101137.84
2022-12-12T01:33:45.974Z,101138.38
2022-12-12T01:36:16.852Z,101142.03
2022-12-12T01:38:45.000Z,101146.66
2022-12-12T01:41:13.595Z,101140.75
2022-12-12T01:43:42.420Z,101144.28
2022-12-12T01:46:47.056Z,101142.44
2022-12-12T01:49:22.670Z,101146.94
2022-12-12T01:51:53.654Z,101137.22
2022-12-12T01:54:27.186Z,101139.00
2022-12-12T01:56:58.391Z,101137.22
2022-12-12T01:59:29.406Z,101133.00
2022-12-12T02:01:57.195Z,101135.84
2022-12-12T02:04:27.761Z,101142.09
2022-12-12T02:06:56.181Z,101140.72
2022-12-12T02:09:25.762Z,101153.59
2022-12-12T02:11:56.561Z,101154.28
2022-12-12T02:14:30.258Z,101156.66
2022-12-12T02:17:23.040Z,101154.63
2022-12-12T02:20:52.300Z,101151.91
2022-12-12T02:23:50.914Z,101148.72
2022-12-12T02:27:12.761Z,101158.81
2022-12-12T02:30:09.406Z,101149.59
2022-12-12T02:33:09.850Z,101154.91
2022-12-12T02:35:51.522Z,101153.63
2022-12-12T02:38:31.303Z,101152.19
2022-12-12T02:41:15.416Z,101157.88
2022-12-12T02:43:56.138Z,101152.75
2022-12-12T02:46:31.219Z,101151.22
2022-12-12T02:49:04.653Z,101154.16
2022-12-12T02:51:34.402Z,101153.91
2022-12-12T02:54:04.058Z,101159.00
2022-12-12T02:56:54.614Z,101157.59
2022-12-12T02:59:27.525Z,101154.28
2022-12-12T03:02:48.018Z,101152.38
2022-12-12T03:06:01.154Z,101156.69
2022-12-12T03:08:49.921Z,101160.75
2022-12-12T03:11:38.004Z,101160.28
2022-12-12T03:14:17.159Z,101162.16
2022-12-12T03:16:56.233Z,101156.97
2022-12-12T03:19:29.046Z,101165.34
2022-12-12T03:22:05.336Z,101165.47
2022-12-12T03:24:43.011Z,101169.97
2022-12-12T03:27:18.594Z,101167.28
2022-12-12T03:29:54.102Z,101168.78
2022-12-12T03:32:28.152Z,101171.19
2022-12-12T03:35:02.390Z,101164.31
2022-12-12T03:37:35.649Z,101171.41
2022-12-12T03:40:10.194Z,101163.13
2022-12-12T03:42:44.397Z,101161.72
2022-12-12T03:45:20.182Z,101156.75
2022-12-12T03:47:54.061Z,101165.72
2022-12-12T03:50:25.100Z,101172.47
2022-12-12T03:53:01.265Z,101164.53
2022-12-12T03:55:36.888Z,101170.09
2022-12-12T03:58:11.519Z,101172.00
2022-12-12T04:00:43.899Z,101175.19
2022-12-12T04:03:21.410Z,101171.38
2022-12-12T04:06:17.364Z,101177.06
2022-12-12T04:09:05.519Z,101176.69
2022-12-12T04:11:59.137Z,101172.78
2022-12-12T04:15:03.669Z,101176.00
2022-12-12T04:17:41.178Z,101168.50
2022-12-12T04:20:40.815Z,101175.59
2022-12-12T04:23:21.316Z,101170.72
2022-12-12T04:26:23.581Z,101169.16
2022-12-12T04:29:02.768Z,101175.53
2022-12-12T04:31:35.537Z,101171.50
2022-12-12T04:34:12.257Z,101176.19
2022-12-12T04:36:43.763Z,101180.66
2022-12-12T04:39:14.499Z,101178.94
2022-12-12T04:41:46.617Z,101185.69
2022-12-12T04:44:17.592Z,101188.44
2022-12-12T04:46:49.167Z,101183.00
2022-12-12T04:49:22.056Z,101180.47
2022-12-12T04:51:55.872Z,101176.94
2022-12-12T04:54:32.769Z,101189.03
2022-12-12T04:57:07.803Z,101183.63
2022-12-12T04:59:35.541Z,101181.63
2022-12-12T05:02:14.920Z,101179.88
2022-12-12T05:04:49.370Z,101187.47
2022-12-12T05:07:28.060Z,101181.09
2022-12-12T05:09:56.872Z,101184.06
2022-12-12T05:12:25.201Z,101183.69
2022-12-12T05:14:52.154Z,101182.28
2022-12-12T05:17:30.927Z,101188.91
2022-12-12T05:19:58.778Z,101189.41
2022-12-12T05:22:25.797Z,101186.78
2022-12-12T05:24:52.733Z,101187.03
2022-12-12T05:27:19.684Z,101187.25
2022-12-12T05:29:47.985Z,101193.38
2022-12-12T05:32:14.943Z,101194.34
2022-12-12T05:34:41.988Z,101190.91
2022-12-12T05:37:08.917Z,101191.03
2022-12-12T05:39:36.227Z,101182.53
2022-12-12T05:42:03.428Z,101192.94
2022-12-12T05:44:30.427Z,101185.84
2022-12-12T05:46:58.750Z,101188.19
2022-12-12T05:49:32.266Z,101189.16
2022-12-12T05:51:59.724Z,101190.06
2022-12-12T05:54:26.752Z,101195.28
2022-12-12T05:56:53.697Z,101199.78
2022-12-12T05:59:20.879Z,101191.28
2022-12-12T06:01:47.908Z,101193.16
2022-12-12T06:04:16.261Z,101201.31
2022-12-12T06:06:43.395Z,101202.38
2022-12-12T06:09:10.361Z,101201.41
2022-12-12T06:11:37.333Z,101205.69
2022-12-12T06:14:04.612Z,101212.31
2022-12-12T06:16:31.607Z,101211.25
2022-12-12T06:18:58.608Z,101210.88
2022-12-12T06:21:27.543Z,101209.81
2022-12-12T06:23:54.507Z,101207.34
2022-12-12T06:26:22.192Z,101205.59
2022-12-12T06:28:49.788Z,101204.75
2022-12-12T06:31:17.797Z,101208.28
2022-12-12T06:33:45.295Z,101210.88
2022-12-12T06:36:16.502Z,101218.69
2022-12-12T06:38:45.045Z,101214.44
2022-12-12T06:41:14.409Z,101220.59
2022-12-12T06:43:44.766Z,101213.84
2022-12-12T06:46:16.746Z,101208.63
2022-12-12T06:48:44.180Z,101224.97
2022-12-12T06:51:17.233Z,101221.56
2022-12-12T06:53:45.671Z,101218.69
2022-12-12T06:56:15.518Z,101216.78
2022-12-12T06:58:43.107Z,101218.25
2022-12-12T07:01:12.286Z,101218.25
2022-12-12T07:03:40.344Z,101219.88
2022-12-12T07:06:07.982Z,101226.16
2022-12-12T07:08:36.126Z,101226.16
2022-12-12T07:11:08.762Z,101226.28
2022-12-12T07:13:36.207Z,101229.81
2022-12-12T07:16:03.488Z,101225.34
2022-12-12T07:18:30.655Z,101232.78
2022-12-12T07:20:57.955Z,101226.41
2022-12-12T07:23:25.126Z,101229.94
2022-12-12T07:25:52.124Z,101230.28
2022-12-12T07:28:46.487Z,101231.22
2022-12-12T07:31:17.306Z,101245.91
2022-12-12T07:33:45.008Z,101235.38
2022-12-12T07:36:12.720Z,101233.50
2022-12-12T07:38:40.527Z,101235.97
2022-12-12T07:41:13.679Z,101240.22
2022-12-12T07:43:44.192Z,101238.78
2022-12-12T07:46:19.970Z,101247.09
2022-12-12T07:48:47.205Z,101245.88
2022-12-12T07:51:15.312Z,101249.41
2022-12-12T07:53:42.813Z,101249.41
2022-12-12T07:56:12.985Z,101248.84
2022-12-12T07:58:39.998Z,101251.53
2022-12-12T08:01:15.505Z,101252.00
2022-12-12T08:03:43.199Z,101253.06
2022-12-12T08:06:10.515Z,101254.94
2022-12-12T08:08:37.785Z,101257.56
2022-12-12T08:11:07.573Z,101259.09
2022-12-12T08:13:36.612Z,101251.78
2022-12-12T08:16:06.778Z,101250.69
2022-12-12T08:18:35.223Z,101249.41
2022-12-12T08:21:02.232Z,101252.03
2022-12-12T08:23:29.209Z,101254.88
2022-12-12T08:25:56.358Z,101258.69
2022-12-12T08:28:23.339Z,101262.47
2022-12-12T08:30:51.565Z,101260.13
2022-12-12T08:33:18.966Z,101259.63
2022-12-12T08:35:47.255Z,101264.38
2022-12-12T08:38:14.631Z,101262.25
2022-12-12T08:40:41.874Z,101260.94
2022-12-12T08:43:09.227Z,101264.16
2022-12-12T08:45:37.794Z,101263.31
2022-12-12T08:48:06.513Z,101261.78
2022-12-12T08:50:33.889Z,101265.31
2022-12-12T08:53:02.230Z,101264.88
2022-12-12T08:55:30.264Z,101267.94
2022-12-12T08:57:57.221Z,101265.19
2022-12-12T09:00:24.251Z,101259.88
2022-12-12T09:02:51.514Z,101265.31
2022-12-12T09:05:18.589Z,101271.47
2022-12-12T09:07:45.678Z,101267.44
2022-12-12T09:10:14.069Z,101268.63
2022-12-12T09:12:42.020Z,101277.38
2022-12-12T09:15:10.499Z,101286.13
2022-12-12T09:17:37.711Z,101277.38
2022-12-12T09:20:06.473Z,101278.78
2022-12-12T09:22:33.482Z,101283.50
2022-12-12T09:25:00.603Z,101275.00
2022-12-12T09:27:29.174Z,101275.44
2022-12-12T09:29:56.468Z,101281.13
2022-12-12T09:32:24.866Z,101279.94
2022-12-12T09:34:52.149Z,101278.50
2022-12-12T09:37:19.348Z,101277.09
2022-12-12T09:39:46.381Z,101270.81
2022-12-12T09:42:23.378Z,101278.28
2022-12-12T09:44:56.962Z,101280.13
2022-12-12T09:47:36.707Z,101285.34
2022-12-12T09:50:16.109Z,101283.75
2022-12-12T09:52:44.492Z,101286.00
2022-12-12T09:55:33.907Z,101287.66
2022-12-12T09:58:14.051Z,101290.72
2022-12-12T10:00:50.003Z,101282.53
2022-12-12T10:03:44.550Z,101288.06
2022-12-12T10:06:36.560Z,101290.63
2022-12-12T10:09:24.806Z,101280.16
2022-12-12T10:11:55.094Z,101276.53
2022-12-12T10:14:34.411Z,101277.66
2022-12-12T10:17:08.999Z,101284.03
2022-12-12T10:19:48.060Z,101274.38
2022-12-12T10:22:29.074Z,101277.13
2022-12-12T10:25:06.203Z,101273.00
2022-12-12T10:27:33.583Z,101281.75
2022-12-12T10:30:16.089Z,101281.75
2022-12-12T10:33:04.933Z,101283.13
2022-12-12T10:35:47.527Z,101279.06
2022-12-12T10:38:42.574Z,101280.44
2022-12-12T10:41:23.876Z,101274.97
2022-12-12T10:44:01.733Z,101271.13
2022-12-12T10:46:38.652Z,101275.13
2022-12-12T10:49:16.222Z,101269.56
2022-12-12T10:51:46.763Z,101269.03
2022-12-12T10:54:20.222Z,101277.16
2022-12-12T10:57:14.132Z,101271.91
2022-12-12T10:59:50.098Z,101272.75
2022-12-12T11:02:34.881Z,101264.25
2022-12-12T11:05:16.658Z,101271.56
2022-12-12T11:07:48.401Z,101266.06
2022-12-12T11:10:31.975Z,101270.19
2022-12-12T11:13:13.731Z,101267.06
2022-12-12T11:15:49.366Z,101274.78
2022-12-12T11:18:20.046Z,101270.00
2022-12-12T11:20:52.396Z,101265.03
2022-12-12T11:23:24.503Z,101264.78
2022-12-12T11:25:57.796Z,101267.94
2022-12-12T11:28:31.305Z,101263.13
2022-12-12T11:31:04.324Z,101263.56
2022-12-12T11:33:38.095Z,101255.03
2022-12-12T11:36:08.285Z,101256.13
2022-12-12T11:38:41.017Z,101262.91
2022-12-12T11:41:11.899Z,101260.56
2022-12-12T11:43:55.775Z,101248.59
2022-12-12T11:46:26.568Z,101247.47
2022-12-12T11:49:02.311Z,101246.34
2022-12-12T11:51:40.444Z,101235.09
2022-12-12T11:54:14.312Z,101240.69
2022-12-12T11:56:49.930Z,101233.47
2022-12-12T11:59:46.234Z,101245.53
2022-12-12T12:03:17.668Z,101242.81
2022-12-12T12:06:12.782Z,101244.47
2022-12-12T12:09:13.928Z,101235.59
2022-12-12T12:11:54.554Z,101243.72
2022-12-12T12:14:52.056Z,101238.38
2022-12-12T12:17:36.179Z,101238.25
2022-12-12T12:20:16.905Z,101232.09
2022-12-12T12:23:03.714Z,101240.66
2022-12-12T12:25:49.185Z,101238.75
2022-12-12T12:28:45.364Z,101242.91
2022-12-12T12:31:20.759Z,101230.25
2022-12-12T12:34:08.704Z,101233.56
2022-12-12T12:36:51.871Z,101228.59
2022-12-12T12:39:52.080Z,101233.00
2022-12-12T12:42:37.799Z,101233.41
2022-12-12T12:45:16.316Z,101230.97
2022-12-12T12:47:52.457Z,101231.09
2022-12-12T12:50:24.941Z,101235.06
2022-12-12T12:52:59.255Z,101221.97
2022-12-12T12:55:35.189Z,101229.97
2022-12-12T12:58:07.019Z,101226.41
2022-12-12T13:00:36.703Z,101226.09
2022-12-12T13:03:13.407Z,101227.50
2022-12-12T13:05:46.115Z,101225.00
2022-12-12T13:08:24.411Z,101225.56
2022-12-12T13:10:58.582Z,101223.91
2022-12-12T13:13:30.640Z,101221.16
2022-12-12T13:16:05.557Z,101231.47
2022-12-12T13:18:45.066Z,101227.22
2022-12-12T13:21:24.031Z,101233.00
2022-12-12T13:24:02.965Z,101224.47
2022-12-12T13:26:44.771Z,101229.44
2022-12-12T13:29:32.754Z,101224.31
2022-12-12T13:32:49.570Z,101224.47
2022-12-12T13:35:25.458Z,101220.59
2022-12-12T13:37:58.439Z,101218.41
2022-12-12T13:40:33.688Z,101221.44
2022-12-12T13:43:09.430Z,101223.66
2022-12-12T13:45:45.519Z,101220.34
2022-12-12T13:48:46.537Z,101227.50
2022-12-12T13:51:39.275Z,101224.75
2022-12-12T13:54:53.575Z,101228.59
2022-12-12T13:57:33.388Z,101226.09
2022-12-12T14:00:29.958Z,101223.38
2022-12-12T14:03:06.169Z,101236.03
2022-12-12T14:05:39.760Z,101224.34
2022-12-12T14:08:21.511Z,101232.19
2022-12-12T14:11:01.134Z,101239.47
2022-12-12T14:13:42.873Z,101249.53
2022-12-12T14:16:25.256Z,101240.97
2022-12-12T14:19:07.298Z,101247.56
2022-12-12T14:21:45.787Z,101243.44
2022-12-12T14:25:06.249Z,101239.88
2022-12-12T14:28:29.541Z,101240.66
2022-12-12T14:31:13.931Z,101238.88
2022-12-12T14:34:07.338Z,101241.50
2022-12-12T14:37:03.803Z,101250.88
2022-12-12T14:40:10.737Z,101255.97
2022-12-12T14:43:19.135Z,101250.34
2022-12-12T14:45:38.990Z,101245.09
2022-12-12T14:48:21.330Z,101247.16
2022-12-12T14:50:56.378Z,101252.53
2022-12-12T14:53:31.785Z,101260.78
2022-12-12T14:56:03.366Z,101257.19
2022-12-12T14:58:36.607Z,101254.72
2022-12-12T15:01:06.075Z,101250.59
2022-12-12T15:03:40.274Z,101255.81
2022-12-12T15:06:33.116Z,101252.25
2022-12-12T15:09:24.476Z,101255.53
2022-12-12T15:11:54.390Z,101245.63
2022-12-12T15:14:26.264Z,101243.16
2022-12-12T15:17:01.409Z,101251.25
2022-12-12T15:19:34.937Z,101247.28
2022-12-12T15:22:10.774Z,101254.44
2022-12-12T15:24:39.893Z,101256.34
2022-12-12T15:27:07.349Z,101256.03
2022-12-12T15:29:37.480Z,101261.25
2022-12-12T15:32:15.648Z,101263.97
2022-12-12T15:34:45.773Z,101259.28
2022-12-12T15:37:28.451Z,101266.69
2022-12-12T15:40:17.477Z,101261.44
2022-12-12T15:42:50.868Z,101263.34
2022-12-12T15:45:25.585Z,101259.06
2022-12-12T15:47:54.425Z,101256.22
2022-12-12T15:50:25.790Z,101269.28
2022-12-12T15:53:20.841Z,101267.69
2022-12-12T15:56:00.549Z,101265.47
2022-12-12T15:58:30.917Z,101274.94
2022-12-12T16:01:20.399Z,101276.47
2022-12-12T16:03:59.339Z,101277.56
2022-12-12T16:06:28.805Z,101278.63
2022-12-12T16:09:08.245Z,101275.59
2022-12-12T16:11:45.183Z,101270.63
2022-12-12T16:14:39.689Z,101272.13
2022-12-12T16:17:13.630Z,101274.28
2022-12-12T16:19:52.972Z,101268.47
2022-12-12T16:22:36.190Z,101268.63
2022-12-12T16:25:17.520Z,101268.63
2022-12-12T16:27:46.824Z,101268.63
2022-12-12T16:30:16.645Z,101273.13
2022-12-12T16:32:44.175Z,101271.03
2022-12-12T16:35:15.790Z,101273.31
2022-12-12T16:37:42.835Z,101269.44
2022-12-12T16:40:16.500Z,101273.84
2022-12-12T16:42:59.346Z,101271.78
2022-12-12T16:45:26.813Z,101276.53
2022-12-12T16:47:53.970Z,101279.94
2022-12-12T16:50:21.233Z,101281.00
2022-12-12T16:52:48.211Z,101282.00
2022-12-12T16:55:22.293Z,101283.63
2022-12-12T16:57:49.344Z,101286.69
2022-12-12T17:00:17.456Z,101291.66
2022-12-12T17:02:44.727Z,101282.28
2022-12-12T17:05:17.711Z,101283.75
2022-12-12T17:07:45.109Z,101280.84
2022-12-12T17:10:12.770Z,101281.59
2022-12-12T17:12:41.416Z,101276.03
2022-12-12T17:15:22.025Z,101282.59
2022-12-12T17:18:00.453Z,101278.56
2022-12-12T17:20:37.516Z,101274.81
2022-12-12T17:25:50.432Z,101269.03
2022-12-12T17:28:20.008Z,101269.72
2022-12-12T17:30:49.875Z,101266.44
2022-12-12T17:33:18.436Z,101269.41
2022-12-12T17:36:14.710Z,101273.72
2022-12-12T17:39:15.247Z,101267.19
2022-12-12T17:41:46.077Z,101274.31
2022-12-12T17:45:15.626Z,101277.06
2022-12-12T17:48:38.980Z,101289.38
2022-12-12T17:51:23.838Z,101283.44
2022-12-12T17:53:52.624Z,101284.66
2022-12-12T17:56:22.862Z,101289.84
2022-12-12T17:58:51.047Z,101285.94
2022-12-12T18:01:22.363Z,101283.25
2022-12-12T18:03:50.442Z,101281.34
2022-12-12T18:06:21.247Z,101288.47
2022-12-12T18:08:49.229Z,101290.59
2022-12-12T18:11:19.807Z,101291.06
2022-12-12T18:13:50.247Z,101282.53
2022-12-12T18:16:19.189Z,101288.03
2022-12-12T18:18:46.512Z,101281.84
2022-12-12T18:24:30.762Z,101286.59
2022-12-12T18:27:01.172Z,101293.34
2022-12-12T18:29:28.276Z,101295.63
2022-12-12T18:31:56.916Z,101291.72
2022-12-12T18:34:25.136Z,101286.16
2022-12-12T18:36:52.511Z,101292.53
2022-12-12T18:39:19.876Z,101290.88
2022-12-12T18:41:46.895Z,101284.72
2022-12-12T18:44:15.762Z,101288.16
2022-12-12T18:46:44.034Z,101288.84
2022-12-12T18:49:15.554Z,101279.97
2022-12-12T18:51:44.168Z,101279.75
2022-12-12T18:54:16.084Z,101271.00
2022-12-12T18:56:45.212Z,101270.75
2022-12-12T18:59:16.803Z,101263.66
2022-12-12T19:01:51.465Z,101269.56
2022-12-12T19:04:23.390Z,101257.13
2022-12-12T19:06:51.455Z,101267.88
2022-12-12T19:09:19.941Z,101265.50
2022-12-12T19:12:00.040Z,101258.16
2022-12-12T19:14:59.761Z,101260.63
2022-12-12T19:17:26.254Z,101273.44
2022-12-12T19:19:55.294Z,101266.44
2022-12-12T19:22:44.256Z,101271.53
2022-12-12T19:25:29.972Z,101273.44
2022-12-12T19:28:00.454Z,101272.13
2022-12-12T19:30:29.382Z,101280.06
2022-12-12T19:32:56.823Z,101274.03
2022-12-12T19:35:25.465Z,101284.44
2022-12-12T19:37:52.562Z,101276.88
2022-12-12T19:40:19.716Z,101284.34
2022-12-12T19:42:46.754Z,101272.66
2022-12-12T19:45:14.669Z,101284.25
2022-12-12T19:47:41.717Z,101282.84
2022-12-12T19:50:09.672Z,101280.59
2022-12-12T19:52:38.036Z,101279.75
2022-12-12T19:55:06.434Z,101279.88
2022-12-12T19:57:33.438Z,101273.97
2022-12-12T20:00:00.377Z,101278.09
2022-12-12T20:02:27.481Z,101269.56
2022-12-12T20:04:54.511Z,101276.69
2022-12-12T20:07:21.546Z,101269.84
2022-12-12T20:09:49.996Z,101277.88
2022-12-12T20:12:16.955Z,101290.88
2022-12-12T20:14:44.135Z,101282.13
2022-12-12T20:17:11.519Z,101289.00
2022-12-12T20:19:38.517Z,101289.69
2022-12-12T20:22:05.511Z,101285.44
2022-12-12T20:24:33.878Z,101279.50
2022-12-12T20:27:05.583Z,101283.56
2022-12-12T20:29:32.788Z,101281.16
2022-12-12T20:32:01.160Z,101270.84
2022-12-12T20:34:28.691Z,101274.75
2022-12-12T20:36:55.950Z,101273.09
2022-12-12T20:39:25.705Z,101284.25
2022-12-12T20:41:53.836Z,101279.97
2022-12-12T20:44:24.029Z,101280.84
2022-12-12T20:46:51.939Z,101281.91
2022-12-12T20:49:22.229Z,101287.81
2022-12-12T20:51:57.871Z,101278.09
2022-12-12T20:54:27.211Z,101281.75
2022-12-12T20:56:54.876Z,101281.19
2022-12-12T20:59:24.127Z,101276.34
2022-12-12T21:01:51.426Z,101279.06
2022-12-12T21:04:18.698Z,101279.75
2022-12-12T21:06:50.940Z,101278.09
2022-12-12T21:09:25.047Z,101276.44
2022-12-12T21:11:54.829Z,101272.66
2022-12-12T21:14:24.207Z,101275.72
2022-12-12T21:16:51.708Z,101280.47
2022-12-12T21:19:18.915Z,101271.69
2022-12-12T21:21:46.691Z,101262.94
2022-12-12T21:24:16.720Z,101271.22
2022-12-12T21:26:44.800Z,101263.91
2022-12-12T21:29:12.689Z,101264.63
2022-12-12T21:31:49.916Z,101258.47
2022-12-12T21:34:19.082Z,101255.63
2022-12-12T21:36:46.315Z,101251.59
2022-12-12T21:39:13.469Z,101257.16
2022-12-12T21:41:43.634Z,101260.81
2022-12-12T21:44:10.785Z,101266.97
2022-12-12T21:46:41.533Z,101256.06
2022-12-12T21:49:19.677Z,101260.84
2022-12-12T21:51:46.918Z,101255.50
2022-12-12T21:54:15.447Z,101256.78
2022-12-12T21:56:43.302Z,101261.72
2022-12-12T21:59:10.959Z,101259.59
2022-12-12T22:01:37.960Z,101253.44
2022-12-12T22:04:05.588Z,101261.00
2022-12-12T22:06:36.099Z,101259.81
2022-12-12T22:09:07.405Z,101263.34
2022-12-12T22:11:41.437Z,101260.94
2022-12-12T22:14:17.349Z,101267.00
2022-12-12T22:16:44.654Z,101274.28
2022-12-12T22:19:15.308Z,101281.50
2022-12-12T22:21:45.810Z,101278.69
2022-12-12T22:24:13.132Z,101287.44
2022-12-12T22:26:42.799Z,101286.03
2022-12-12T22:29:13.671Z,101296.72
2022-12-12T22:31:41.572Z,101291.75
2022-12-12T22:34:14.025Z,101281.09
2022-12-12T22:36:43.180Z,101286.53
2022-12-12T22:39:14.817Z,101281.53
2022-12-12T22:41:41.758Z,101284.25
2022-12-12T22:44:11.972Z,101284.97
2022-12-12T22:46:43.678Z,101288.06
2022-12-12T22:49:13.694Z,101286.88
2022-12-12T22:51:41.423Z,101287.50
2022-12-12T22:54:09.882Z,101287.16
2022-12-12T22:56:39.804Z,101281.47
2022-12-12T22:59:08.118Z,101281.84
2022-12-12T23:01:35.718Z,101270.28
2022-12-12T23:04:04.416Z,101272.66
2022-12-12T23:06:35.550Z,101270.97
2022-12-12T23:09:06.461Z,101259.75
2022-12-12T23:11:36.475Z,101271.34
2022-12-12T23:14:07.323Z,101267.19
2022-12-12T23:16:35.576Z,101267.53
2022-12-12T23:19:04.791Z,101262.19
2022-12-12T23:21:32.981Z,101267.38
2022-12-12T23:23:59.938Z,101262.25
2022-12-12T23:26:30.120Z,101265.41
2022-12-12T23:28:59.813Z,101259.00
2022-12-12T23:31:30.148Z,101261.13
2022-12-12T23:33:59.815Z,101271.31
2022-12-12T23:36:28.287Z,101272.94
2022-12-12T23:38:55.735Z,101263.00
2022-12-12T23:41:23.760Z,101271.97
2022-12-12T23:43:51.491Z,101270.53
2022-12-12T23:46:33.302Z,101262.22
2022-12-12T23:49:03.885Z,101272.56
2022-12-12T23:51:33.414Z,101278.22
2022-12-12T23:54:02.823Z,101277.47
2022-12-12T23:56:30.393Z,101270.44
2022-12-12T23:58:59.317Z,101267.25
